Time;durP1;ratioP1;P1;durP2;ratioP2;P2;SDS_P1;SDS_P2;PMS_P1;PMS_P2;Temp;Humidity;BMP_temperature;BMP_pressure;BME280_temperature;BME280_humidity;BME280_pressure;Samples;Min_cycle;Max_cycle;Signal;HPM_P1;HPM_P2
2020/12/30 00:00:58;;;;;;;12.30;4.43;;;6.50;94.40;;;;;;5070328;28;20024;-73
2020/12/30 00:03:24;;;;;;;10.85;4.25;;;6.50;94.60;;;;;;5070593;28;20021;-73
2020/12/30 00:05:49;;;;;;;11.38;4.72;;;6.60;94.70;;;;;;5071962;28;20381;-74
2020/12/30 00:08:15;;;;;;;10.60;4.75;;;6.60;94.50;;;;;;5071461;28;20115;-74
2020/12/30 00:10:41;;;;;;;6.30;3.70;;;6.50;94.30;;;;;;5074048;28;20036;-72
2020/12/30 00:13:07;;;;;;;6.47;3.88;;;6.40;94.50;;;;;;5075608;28;20098;-72
2020/12/30 00:15:32;;;;;;;8.25;4.22;;;6.40;94.80;;;;;;5075153;28;20036;-75
2020/12/30 00:17:58;;;;;;;9.07;3.88;;;6.40;94.80;;;;;;5076943;28;20358;-73
2020/12/30 00:20:24;;;;;;;11.18;4.50;;;6.50;94.80;;;;;;5075503;28;20032;-72
2020/12/30 00:22:50;;;;;;;9.10;4.22;;;6.40;94.70;;;;;;5075359;28;20112;-73
2020/12/30 00:25:18;;;;;;;11.10;4.30;;;6.50;94.90;;;;;;5075222;28;20029;-73
2020/12/30 00:27:44;;;;;;;;;;;6.40;94.80;;;;;;5075540;28;20032;-73
2020/12/30 00:30:17;;;;;;;8.50;4.55;;;6.50;94.80;;;;;;5074887;28;20303;-73
2020/12/30 00:32:44;;;;;;;9.48;4.63;;;6.50;94.90;;;;;;5076583;28;20021;-73
2020/12/30 00:35:14;;;;;;;9.50;4.65;;;6.60;94.90;;;;;;5073789;28;20044;-73
2020/12/30 00:37:40;;;;;;;11.00;4.05;;;6.50;94.80;;;;;;5074787;28;20144;-73
2020/12/30 00:40:06;;;;;;;8.55;3.97;;;6.50;94.80;;;;;;5074926;28;20024;-75
2020/12/30 00:42:33;;;;;;;7.47;3.70;;;6.40;94.90;;;;;;5074681;28;20025;-73
2020/12/30 00:45:00;;;;;;;8.52;4.45;;;6.50;94.90;;;;;;5076794;28;20067;-72
2020/12/30 00:47:26;;;;;;;9.05;4.25;;;6.40;94.90;;;;;;5074540;28;20436;-74
2020/12/30 00:49:52;;;;;;;7.15;4.05;;;6.40;94.90;;;;;;5074745;28;20036;-74
2020/12/30 00:52:18;;;;;;;7.90;4.50;;;6.40;94.90;;;;;;5074776;28;20037;-72
2020/12/30 00:54:44;;;;;;;8.48;3.72;;;6.40;95.00;;;;;;5074703;28;20024;-74
2020/12/30 00:57:09;;;;;;;6.40;4.13;;;6.40;95.00;;;;;;5074394;28;20020;-73
2020/12/30 00:59:35;;;;;;;6.88;4.03;;;6.40;95.10;;;;;;5076059;28;20047;-73
2020/12/30 01:02:01;;;;;;;13.35;4.88;;;6.50;95.10;;;;;;5074492;28;20124;-74
2020/12/30 01:04:26;;;;;;;8.77;4.72;;;6.50;95.00;;;;;;5074595;28;20079;-73
2020/12/30 01:06:54;;;;;;;8.18;4.00;;;6.60;95.10;;;;;;5074596;28;20037;-73
2020/12/30 01:09:24;;;;;;;8.63;4.72;;;6.60;95.00;;;;;;5074531;28;20482;-73
2020/12/30 01:11:50;;;;;;;8.45;4.15;;;6.50;94.90;;;;;;5075905;28;20035;-73
2020/12/30 01:14:17;;;;;;;8.80;4.07;;;6.60;94.90;;;;;;5074155;28;20061;-73
2020/12/30 01:16:52;;;;;;;8.88;4.60;;;6.50;94.90;;;;;;5074137;28;20037;-72
2020/12/30 01:19:19;;;;;;;7.53;4.35;;;6.40;94.90;;;;;;5074063;28;20032;-74
2020/12/30 01:21:46;;;;;;;9.48;4.22;;;6.50;95.00;;;;;;5072133;28;20431;-74
2020/12/30 01:24:12;;;;;;;7.72;4.68;;;6.40;95.00;;;;;;5074121;28;20028;-74
2020/12/30 01:26:38;;;;;;;10.70;4.75;;;6.50;95.20;;;;;;5075947;28;20025;-73
2020/12/30 01:29:04;;;;;;;9.38;4.43;;;6.50;95.00;;;;;;5074212;28;20025;-71
2020/12/30 01:31:31;;;;;;;9.07;4.43;;;6.50;95.00;;;;;;5073864;28;20047;-72
2020/12/30 01:33:58;;;;;;;9.40;4.75;;;6.50;95.00;;;;;;5073981;28;20037;-72
2020/12/30 01:36:24;;;;;;;7.57;4.60;;;6.50;95.20;;;;;;5073518;28;20518;-72
2020/12/30 01:38:50;;;;;;;14.77;5.05;;;6.40;95.00;;;;;;5075570;28;20142;-72
2020/12/30 01:41:16;;;;;;;10.00;4.82;;;6.40;95.00;;;;;;5072760;28;20028;-74
2020/12/30 01:43:55;;;;;;;8.23;4.75;;;6.40;95.00;;;;;;5073808;28;20032;-72
2020/12/30 01:46:40;;;;;;;10.43;4.68;;;6.40;95.00;;;;;;5073445;28;20040;-72
2020/12/30 01:49:11;;;;;;;11.60;5.63;;;6.40;95.00;;;;;;5073302;28;20116;-72
2020/12/30 01:51:40;;;;;;;9.30;4.97;;;6.40;95.00;;;;;;5073706;28;20032;-73
2020/12/30 01:54:13;;;;;;;13.68;5.28;;;6.30;95.10;;;;;;5072278;28;20031;-74
2020/12/30 01:56:40;;;;;;;9.68;4.75;;;6.30;95.00;;;;;;5075250;28;20495;-72
2020/12/30 01:59:09;;;;;;;8.60;4.20;;;6.30;95.00;;;;;;5073646;28;20048;-72
2020/12/30 02:01:39;;;;;;;8.65;5.13;;;6.30;95.10;;;;;;5073548;28;20485;-72
2020/12/30 02:04:08;;;;;;;10.07;4.75;;;6.30;95.00;;;;;;5072298;28;20051;-72
2020/12/30 02:06:36;;;;;;;13.82;4.35;;;6.30;95.10;;;;;;5073289;28;20024;-72
2020/12/30 02:09:04;;;;;;;12.75;5.38;;;6.20;95.10;;;;;;5074835;28;20720;-73
2020/12/30 02:11:30;;;;;;;7.60;4.25;;;6.20;95.20;;;;;;5072259;28;20036;-72
2020/12/30 02:14:13;;;;;;;11.05;4.80;;;6.10;95.20;;;;;;5071923;28;20075;-73
2020/12/30 02:16:50;;;;;;;11.38;5.10;;;6.20;95.20;;;;;;5071837;28;20071;-74
2020/12/30 02:19:16;;;;;;;10.38;4.57;;;6.40;95.30;;;;;;5073023;28;20036;-73
2020/12/30 02:21:42;;;;;;;8.70;4.68;;;6.20;95.10;;;;;;5073067;28;20039;-73
2020/12/30 02:24:11;;;;;;;10.95;5.20;;;6.20;95.20;;;;;;5072932;28;20054;-73
2020/12/30 02:26:37;;;;;;;10.10;4.60;;;6.20;95.10;;;;;;5074458;28;20052;-73
2020/12/30 02:29:03;;;;;;;12.45;5.85;;;6.20;95.20;;;;;;5072794;28;20118;-72
2020/12/30 02:31:29;;;;;;;7.45;4.88;;;6.20;95.20;;;;;;5072948;28;20037;-73
2020/12/30 02:33:55;;;;;;;9.18;4.60;;;6.10;95.20;;;;;;5072339;28;20024;-72
2020/12/30 02:36:20;;;;;;;11.38;4.60;;;6.10;95.30;;;;;;5072546;28;20068;-73
2020/12/30 02:38:54;;;;;;;9.45;4.88;;;6.10;95.30;;;;;;5073955;28;20028;-73
2020/12/30 02:41:20;;;;;;;7.68;4.68;;;6.10;95.20;;;;;;5071704;28;20036;-72
2020/12/30 02:43:47;;;;;;;8.65;4.85;;;6.10;95.30;;;;;;5072335;28;20047;-74
2020/12/30 02:46:13;;;;;;;8.60;4.85;;;6.20;95.30;;;;;;5072687;28;20025;-74
2020/12/30 02:48:38;;;;;;;11.88;5.63;;;6.20;95.20;;;;;;5071313;28;20111;-73
2020/12/30 02:51:05;;;;;;;6.47;4.13;;;6.20;95.20;;;;;;5074160;28;20107;-74
2020/12/30 02:53:30;;;;;;;8.65;4.80;;;6.20;95.20;;;;;;5072373;28;20355;-74
2020/12/30 02:55:56;;;;;;;9.82;5.05;;;6.20;95.20;;;;;;5071360;28;20036;-73
2020/12/30 02:58:22;;;;;;;9.27;4.75;;;6.20;95.20;;;;;;5072204;28;20055;-73
2020/12/30 03:00:47;;;;;;;9.88;5.07;;;6.20;95.20;;;;;;5072736;28;20119;-74
2020/12/30 03:03:13;;;;;;;11.88;5.32;;;6.20;95.20;;;;;;5072070;28;20028;-73
2020/12/30 03:05:39;;;;;;;10.27;5.22;;;6.10;95.20;;;;;;5073733;28;20528;-74
2020/12/30 03:08:05;;;;;;;15.20;4.97;;;6.10;95.20;;;;;;5071708;28;20037;-72
2020/12/30 03:10:30;;;;;;;10.43;4.72;;;6.10;95.20;;;;;;5072188;28;20036;-73
2020/12/30 03:12:56;;;;;;;9.52;5.10;;;6.10;95.20;;;;;;5072247;28;20041;-73
2020/12/30 03:15:21;;;;;;;9.02;4.90;;;6.10;95.20;;;;;;5071763;28;20035;-73
2020/12/30 03:17:47;;;;;;;8.70;4.68;;;6.00;95.10;;;;;;5073362;28;20036;-73
2020/12/30 03:20:13;;;;;;;9.95;4.15;;;6.00;95.20;;;;;;5071818;28;20071;-73
2020/12/30 03:22:39;;;;;;;10.73;4.22;;;6.00;95.20;;;;;;5071788;28;20033;-73
2020/12/30 03:25:05;;;;;;;7.78;4.50;;;6.00;95.10;;;;;;5071859;28;20473;-73
2020/12/30 03:27:30;;;;;;;8.55;4.53;;;5.90;95.10;;;;;;5070718;28;20024;-73
2020/12/30 03:29:56;;;;;;;7.40;4.35;;;5.90;95.10;;;;;;5073441;28;20150;-75
2020/12/30 03:32:22;;;;;;;14.18;4.53;;;6.10;95.20;;;;;;5070899;28;20040;-75
2020/12/30 03:34:47;;;;;;;11.07;4.65;;;5.90;95.10;;;;;;5071852;28;20047;-74
2020/12/30 03:37:13;;;;;;;8.35;5.05;;;6.00;95.10;;;;;;5071460;28;20458;-73
2020/12/30 03:39:39;;;;;;;9.00;4.95;;;5.80;95.00;;;;;;5071326;28;20025;-72
2020/12/30 03:42:06;;;;;;;7.75;4.38;;;6.10;95.10;;;;;;5073340;28;20055;-74
2020/12/30 03:44:33;;;;;;;8.18;5.32;;;6.00;95.10;;;;;;5070624;28;20029;-72
2020/12/30 03:46:59;;;;;;;9.52;4.30;;;5.90;95.10;;;;;;5071659;28;20454;-73
2020/12/30 03:49:25;;;;;;;7.03;4.60;;;5.90;95.10;;;;;;5070541;28;20032;-76
2020/12/30 03:51:51;;;;;;;8.05;4.50;;;5.80;95.10;;;;;;5071745;28;20045;-73
2020/12/30 03:54:16;;;;;;;7.93;4.35;;;5.80;95.20;;;;;;5071335;28;20025;-72
2020/12/30 03:56:42;;;;;;;11.13;4.95;;;5.80;95.20;;;;;;5072255;28;20454;-72
2020/12/30 03:59:08;;;;;;;9.48;4.57;;;5.80;95.30;;;;;;5071291;28;20066;-72
2020/12/30 04:01:33;;;;;;;8.20;4.22;;;5.80;95.20;;;;;;5071582;28;20094;-72
2020/12/30 04:03:59;;;;;;;14.05;5.15;;;5.80;95.30;;;;;;5071503;28;20432;-73
2020/12/30 04:06:25;;;;;;;7.93;4.78;;;5.80;95.30;;;;;;5070467;28;20021;-73
2020/12/30 04:08:50;;;;;;;10.32;5.35;;;5.70;95.40;;;;;;5072952;28;20040;-72
2020/12/30 04:11:16;;;;;;;10.13;5.10;;;5.70;95.50;;;;;;5070362;28;20359;-72
2020/12/30 04:13:42;;;;;;;7.88;4.47;;;5.60;95.50;;;;;;5058123;28;20029;-72
2020/12/30 04:16:07;;;;;;;8.88;4.95;;;5.70;95.60;;;;;;5051885;28;20397;-72
2020/12/30 04:18:33;;;;;;;9.00;5.10;;;5.70;95.60;;;;;;5055085;28;20576;-73
2020/12/30 04:20:58;;;;;;;12.05;5.22;;;5.60;95.60;;;;;;5072929;28;20064;-73
2020/12/30 04:23:24;;;;;;;10.25;4.95;;;5.60;95.60;;;;;;5071540;28;20032;-73
2020/12/30 04:25:50;;;;;;;11.75;6.25;;;5.60;95.60;;;;;;5071450;28;20029;-72
2020/12/30 04:28:16;;;;;;;7.10;4.43;;;5.60;95.70;;;;;;5071142;28;20028;-73
2020/12/30 04:30:41;;;;;;;15.85;6.13;;;5.60;95.70;;;;;;5070974;28;20033;-73
2020/12/30 04:33:09;;;;;;;12.20;5.90;;;5.50;95.70;;;;;;5071046;28;20025;-72
2020/12/30 04:35:34;;;;;;;7.22;4.47;;;5.50;95.70;;;;;;5072473;28;20049;-72
2020/12/30 04:38:00;;;;;;;8.73;5.05;;;5.50;95.70;;;;;;5070972;28;20095;-72
2020/12/30 04:40:26;;;;;;;9.27;4.75;;;5.50;95.70;;;;;;5071017;28;20628;-73
2020/12/30 04:42:55;;;;;;;10.52;4.97;;;5.50;95.80;;;;;;5068918;28;20033;-72
2020/12/30 04:45:21;;;;;;;9.77;5.15;;;5.50;95.80;;;;;;5071422;28;20082;-72
2020/12/30 04:47:51;;;;;;;8.73;4.75;;;5.50;95.90;;;;;;5072731;28;20048;-72
2020/12/30 04:50:16;;;;;;;9.30;4.60;;;5.50;95.80;;;;;;5070134;28;20512;-75
2020/12/30 04:52:43;;;;;;;8.30;4.72;;;5.50;95.80;;;;;;5071025;28;20048;-72
2020/12/30 04:55:10;;;;;;;10.38;5.22;;;5.40;95.90;;;;;;5071224;28;20123;-72
2020/12/30 04:57:42;;;;;;;9.03;5.23;;;5.30;95.90;;;;;;5072422;28;20032;-72
2020/12/30 05:00:08;;;;;;;11.65;5.68;;;5.30;96.00;;;;;;5074274;28;20032;-72
2020/12/30 05:02:36;;;;;;;9.80;5.07;;;5.20;96.00;;;;;;5075925;28;20031;-73
2020/12/30 05:05:02;;;;;;;;;;;5.30;96.00;;;;;;5074850;28;20476;-72
2020/12/30 05:07:28;;;;;;;10.68;5.70;;;5.20;96.10;;;;;;5074449;28;19954;-72
2020/12/30 05:09:56;;;;;;;13.10;5.20;;;5.30;96.10;;;;;;5074289;28;20033;-72
2020/12/30 05:12:22;;;;;;;11.57;5.13;;;5.30;96.10;;;;;;5074355;28;20470;-71
2020/12/30 05:14:48;;;;;;;11.23;5.85;;;5.30;96.00;;;;;;5075903;28;20439;-71
2020/12/30 05:17:15;;;;;;;11.68;5.43;;;5.30;96.00;;;;;;5073934;28;20043;-72
2020/12/30 05:19:42;;;;;;;11.30;5.47;;;5.30;96.00;;;;;;5073138;28;20127;-72
2020/12/30 05:22:20;;;;;;;11.07;5.35;;;5.20;96.10;;;;;;5074065;28;20035;-72
2020/12/30 05:24:47;;;;;;;9.95;5.13;;;5.20;96.10;;;;;;5074238;28;20040;-72
2020/12/30 05:27:17;;;;;;;10.00;5.50;;;5.20;96.10;;;;;;5074308;28;20088;-72
2020/12/30 05:29:52;;;;;;;9.18;4.63;;;5.20;96.00;;;;;;5075594;28;20621;-71
2020/12/30 05:32:18;;;;;;;13.02;5.88;;;5.30;96.00;;;;;;5073886;28;20040;-72
2020/12/30 05:34:45;;;;;;;9.68;5.00;;;5.20;96.00;;;;;;5073914;28;20059;-71
2020/12/30 05:37:12;;;;;;;8.55;4.90;;;5.30;96.00;;;;;;5073721;28;20456;-72
2020/12/30 05:39:38;;;;;;;12.82;4.68;;;5.20;96.00;;;;;;5073954;28;20116;-71
2020/12/30 05:42:18;;;;;;;8.75;4.95;;;5.20;96.10;;;;;;5075414;28;20588;-73
2020/12/30 05:44:49;;;;;;;8.40;4.90;;;5.30;96.10;;;;;;5073829;28;20036;-72
2020/12/30 05:47:26;;;;;;;9.52;5.57;;;5.20;96.00;;;;;;5073747;28;20036;-72
2020/12/30 05:49:54;;;;;;;13.13;5.15;;;5.20;96.10;;;;;;5073427;28;20374;-73
2020/12/30 05:52:25;;;;;;;14.25;4.97;;;5.10;96.10;;;;;;5072590;28;20351;-72
2020/12/30 05:54:53;;;;;;;10.57;5.05;;;5.10;96.10;;;;;;5073706;28;20028;-73
2020/12/30 05:57:19;;;;;;;;;;;5.10;96.10;;;;;;5073843;28;20050;-73
2020/12/30 05:59:45;;;;;;;10.80;5.10;;;5.10;96.20;;;;;;5074077;28;19991;-72
2020/12/30 06:02:11;;;;;;;10.10;4.68;;;5.10;96.30;;;;;;5073398;28;20040;-72
2020/12/30 06:04:37;;;;;;;9.88;4.75;;;5.10;96.20;;;;;;5073339;28;20132;-73
2020/12/30 06:07:03;;;;;;;10.68;5.30;;;5.00;96.20;;;;;;5072981;28;20115;-73
2020/12/30 06:09:38;;;;;;;8.27;5.13;;;5.00;96.30;;;;;;5073337;28;20025;-73
2020/12/30 06:12:06;;;;;;;10.52;5.15;;;5.00;96.30;;;;;;5075031;28;20039;-73
2020/12/30 06:14:32;;;;;;;9.48;4.90;;;4.90;96.30;;;;;;5073392;28;20070;-72
2020/12/30 06:17:01;;;;;;;12.65;5.07;;;5.00;96.30;;;;;;5073287;28;20036;-72
2020/12/30 06:19:28;;;;;;;7.65;4.65;;;4.90;96.30;;;;;;5072908;28;20111;-73
2020/12/30 06:21:54;;;;;;;15.55;5.25;;;4.90;96.40;;;;;;5072808;28;20020;-74
2020/12/30 06:24:20;;;;;;;9.30;5.35;;;5.00;96.40;;;;;;5072065;28;20024;-74
2020/12/30 06:26:46;;;;;;;8.13;5.20;;;5.00;96.40;;;;;;5073371;28;20115;-73
2020/12/30 06:29:16;;;;;;;11.05;5.50;;;5.00;96.40;;;;;;5071787;28;20136;-72
2020/12/30 06:31:45;;;;;;;11.82;5.95;;;5.00;96.30;;;;;;5071842;28;20121;-73
2020/12/30 06:34:11;;;;;;;;;;;5.10;96.30;;;;;;5073270;28;20142;-73
2020/12/30 06:36:37;;;;;;;7.88;4.78;;;5.20;96.30;;;;;;5071037;28;19916;-73
2020/12/30 06:39:20;;;;;;;8.85;5.30;;;5.10;96.50;;;;;;5074279;28;20552;-72
2020/12/30 06:41:59;;;;;;;11.15;5.35;;;5.20;96.20;;;;;;5071773;28;20032;-72
2020/12/30 06:44:42;;;;;;;9.85;6.00;;;5.10;96.10;;;;;;5072593;28;20093;-73
2020/12/30 06:47:12;;;;;;;13.85;5.55;;;5.10;96.20;;;;;;5072602;28;20043;-72
2020/12/30 06:49:38;;;;;;;12.80;5.55;;;5.00;96.30;;;;;;5072490;28;20037;-72
2020/12/30 06:52:24;;;;;;;10.77;5.25;;;5.00;96.40;;;;;;5072289;28;20517;-72
2020/12/30 06:54:50;;;;;;;11.70;4.85;;;5.10;96.30;;;;;;5071940;28;20052;-73
2020/12/30 06:57:39;;;;;;;13.10;5.68;;;5.00;96.30;;;;;;5070219;28;20346;-74
2020/12/30 07:00:26;;;;;;;13.63;5.15;;;5.10;96.40;;;;;;5073735;28;20024;-72
2020/12/30 07:03:13;;;;;;;10.38;5.03;;;5.00;96.40;;;;;;5071542;28;20512;-73
2020/12/30 07:05:39;;;;;;;9.32;5.13;;;5.00;96.30;;;;;;5072490;28;20037;-73
2020/12/30 07:08:05;;;;;;;8.00;4.82;;;5.20;96.40;;;;;;5071195;28;20473;-73
2020/12/30 07:10:30;;;;;;;12.95;5.50;;;5.00;96.40;;;;;;5071813;28;20051;-73
2020/12/30 07:12:56;;;;;;;11.15;5.03;;;4.90;96.40;;;;;;5071782;28;20074;-72
2020/12/30 07:15:27;;;;;;;14.60;5.50;;;5.00;96.40;;;;;;5071871;28;20060;-71
2020/12/30 07:17:55;;;;;;;10.60;4.95;;;4.90;96.40;;;;;;5073419;28;20040;-72
2020/12/30 07:20:23;;;;;;;9.05;4.93;;;4.90;96.50;;;;;;5071278;28;20032;-74
2020/12/30 07:22:49;;;;;;;10.20;5.37;;;4.90;96.60;;;;;;5071042;28;20068;-75
2020/12/30 07:25:16;;;;;;;9.07;4.70;;;4.90;96.60;;;;;;5071633;28;20086;-74
2020/12/30 07:27:42;;;;;;;9.90;5.03;;;4.80;96.60;;;;;;5070458;28;20029;-74
2020/12/30 07:30:07;;;;;;;10.65;4.75;;;4.90;96.70;;;;;;5071912;28;20031;-74
2020/12/30 07:32:34;;;;;;;10.23;4.75;;;4.70;96.70;;;;;;5073336;28;20450;-75
2020/12/30 07:35:00;;;;;;;10.57;4.40;;;4.90;96.90;;;;;;5071894;28;20068;-76
2020/12/30 07:37:26;;;;;;;11.30;4.88;;;4.80;96.80;;;;;;5070605;28;20079;-74
2020/12/30 07:39:52;;;;;;;10.60;4.72;;;4.80;96.80;;;;;;5071684;28;20076;-74
2020/12/30 07:42:20;;;;;;;12.32;5.28;;;4.80;96.90;;;;;;5070712;28;20071;-75
2020/12/30 07:44:48;;;;;;;10.02;5.13;;;4.80;96.80;;;;;;5073314;28;20021;-76
2020/12/30 07:47:15;;;;;;;9.48;4.93;;;4.90;96.80;;;;;;5071639;28;20106;-74
2020/12/30 07:49:41;;;;;;;7.38;4.22;;;4.80;96.70;;;;;;5071590;28;20060;-71
2020/12/30 07:52:07;;;;;;;7.57;4.65;;;4.80;96.90;;;;;;5071465;28;20125;-72
2020/12/30 07:54:33;;;;;;;12.50;6.32;;;4.80;96.90;;;;;;5070675;28;20112;-73
2020/12/30 07:57:12;;;;;;;14.20;6.05;;;4.90;96.90;;;;;;5073165;28;20016;-75
2020/12/30 07:59:41;;;;;;;10.35;4.60;;;4.90;96.80;;;;;;5071938;28;20040;-74
2020/12/30 08:02:19;;;;;;;8.68;4.57;;;4.90;96.80;;;;;;5074489;28;20044;-73
2020/12/30 08:04:47;;;;;;;8.73;5.05;;;4.90;96.80;;;;;;5071227;28;20048;-71
2020/12/30 08:07:16;;;;;;;12.93;6.20;;;4.90;96.90;;;;;;5070347;28;20458;-73
2020/12/30 08:09:44;;;;;;;12.75;6.10;;;4.90;96.90;;;;;;5071541;28;20040;-73
2020/12/30 08:12:14;;;;;;;9.18;5.10;;;4.90;96.90;;;;;;5071130;28;20047;-73
2020/12/30 08:14:41;;;;;;;11.82;5.03;;;4.90;96.90;;;;;;5072975;28;20014;-72
2020/12/30 08:17:09;;;;;;;8.77;4.82;;;4.90;96.90;;;;;;5071243;28;20036;-72
2020/12/30 08:19:37;;;;;;;9.73;4.85;;;4.90;96.90;;;;;;5071417;28;20044;-73
2020/12/30 08:22:12;;;;;;;11.23;5.45;;;4.90;97.20;;;;;;5071371;28;20054;-73
2020/12/30 08:24:43;;;;;;;10.60;4.82;;;5.00;97.30;;;;;;5071300;28;20094;-72
2020/12/30 08:27:10;;;;;;;10.73;4.85;;;5.10;97.20;;;;;;5071244;28;20029;-72
2020/12/30 08:29:39;;;;;;;9.30;5.30;;;5.10;97.10;;;;;;5073041;28;20031;-74
2020/12/30 08:32:36;;;;;;;8.75;5.03;;;5.10;97.00;;;;;;5074076;28;20040;-73
2020/12/30 08:35:07;;;;;;;8.87;5.20;;;5.10;97.00;;;;;;5074084;28;20549;-77
2020/12/30 08:37:38;;;;;;;12.45;5.95;;;5.10;97.00;;;;;;5074823;28;20155;-73
2020/12/30 08:40:03;;;;;;;12.85;5.57;;;5.10;97.00;;;;;;5075168;28;20111;-73
2020/12/30 08:42:53;;;;;;;10.48;5.65;;;5.20;97.00;;;;;;5074892;28;20459;-74
2020/12/30 08:45:28;;;;;;;15.02;6.43;;;5.20;96.90;;;;;;5074125;28;20095;-78
2020/12/30 08:47:56;;;;;;;11.73;6.57;;;5.20;96.90;;;;;;5076163;28;20340;-77
2020/12/30 08:50:26;;;;;;;14.00;6.28;;;5.30;96.90;;;;;;5073886;28;20032;-76
2020/12/30 08:52:55;;;;;;;13.50;6.70;;;5.30;96.80;;;;;;5074259;28;20082;-79
2020/12/30 08:55:21;;;;;;;12.70;6.35;;;5.30;96.90;;;;;;5074796;28;20032;-75
2020/12/30 08:57:47;;;;;;;11.75;6.43;;;5.30;96.80;;;;;;5073337;28;20093;-76
2020/12/30 09:00:13;;;;;;;10.75;6.25;;;5.40;96.90;;;;;;5073581;28;20401;-72
2020/12/30 09:02:39;;;;;;;13.25;6.05;;;5.40;96.70;;;;;;5076074;28;20447;-70
2020/12/30 09:05:04;;;;;;;10.30;6.18;;;5.50;96.70;;;;;;5074183;28;20043;-71
2020/12/30 09:07:30;;;;;;;10.60;5.60;;;5.50;96.70;;;;;;5074545;28;20075;-71
2020/12/30 09:10:04;;;;;;;9.48;5.75;;;5.60;96.60;;;;;;5073517;28;20546;-70
2020/12/30 09:12:30;;;;;;;13.55;6.50;;;5.50;96.50;;;;;;5074077;28;20029;-72
2020/12/30 09:14:56;;;;;;;11.07;5.70;;;5.60;96.60;;;;;;5075646;28;20024;-71
2020/12/30 09:17:21;;;;;;;9.93;5.82;;;5.70;96.60;;;;;;5073846;28;20466;-72
2020/12/30 09:19:48;;;;;;;10.07;5.80;;;5.70;96.50;;;;;;5073177;28;20119;-71
2020/12/30 09:22:14;;;;;;;9.27;5.68;;;5.70;96.50;;;;;;5073794;28;20033;-71
2020/12/30 09:24:44;;;;;;;11.07;6.85;;;5.80;96.50;;;;;;5074382;28;20029;-72
2020/12/30 09:27:17;;;;;;;17.60;8.95;;;5.80;96.40;;;;;;5073961;28;20029;-69
2020/12/30 09:29:44;;;;;;;18.90;10.13;;;5.90;96.40;;;;;;5075427;28;20021;-73
2020/12/30 09:32:09;;;;;;;14.48;8.07;;;5.90;96.30;;;;;;5074011;28;20119;-70
2020/12/30 09:34:35;;;;;;;10.68;6.70;;;5.90;96.20;;;;;;5073871;28;20128;-71
2020/12/30 09:37:01;;;;;;;11.90;6.72;;;5.90;96.30;;;;;;5073591;28;20059;-70
2020/12/30 09:39:28;;;;;;;11.50;6.70;;;5.90;96.20;;;;;;5073462;28;20040;-72
2020/12/30 09:42:02;;;;;;;11.32;6.15;;;5.90;96.20;;;;;;5074829;28;20017;-71
2020/12/30 09:44:28;;;;;;;10.20;5.72;;;6.00;96.20;;;;;;5073681;28;20182;-70
2020/12/30 09:46:55;;;;;;;14.23;7.03;;;6.00;96.20;;;;;;5073522;28;20036;-69
2020/12/30 09:49:21;;;;;;;9.15;6.03;;;6.00;96.10;;;;;;5061658;28;20063;-69
2020/12/30 09:51:53;;;;;;;11.40;6.20;;;6.10;96.10;;;;;;5053765;28;20032;-69
2020/12/30 09:54:19;;;;;;;13.32;6.60;;;6.20;95.90;;;;;;5053628;28;20025;-69
2020/12/30 09:56:51;;;;;;;9.73;6.18;;;6.20;95.90;;;;;;5054853;28;20096;-69
2020/12/30 09:59:20;;;;;;;13.13;5.90;;;6.20;95.70;;;;;;5070351;28;20036;-69
2020/12/30 10:01:49;;;;;;;13.15;5.70;;;6.20;95.50;;;;;;5073191;28;20037;-68
2020/12/30 10:04:15;;;;;;;9.80;5.10;;;6.30;95.70;;;;;;5072185;28;20145;-69
2020/12/30 10:06:45;;;;;;;16.20;7.65;;;6.30;95.10;;;;;;5072112;28;20052;-69
2020/12/30 10:09:11;;;;;;;18.23;7.82;;;6.40;95.20;;;;;;5073444;28;20047;-71
2020/12/30 10:11:37;;;;;;;8.55;5.10;;;6.50;95.10;;;;;;5074783;28;20028;-69
2020/12/30 10:14:03;;;;;;;7.55;5.18;;;6.50;94.60;;;;;;5073090;28;20483;-70
2020/12/30 10:16:32;;;;;;;8.50;5.00;;;6.60;94.50;;;;;;5072258;28;20028;-70
2020/12/30 10:19:00;;;;;;;6.65;4.28;;;6.60;94.40;;;;;;5071943;28;20367;-69
2020/12/30 10:21:32;;;;;;;10.73;4.65;;;6.60;94.20;;;;;;5072743;28;20340;-70
2020/12/30 10:24:02;;;;;;;10.48;4.82;;;6.60;94.00;;;;;;5073050;28;20416;-69
2020/12/30 10:26:27;;;;;;;10.75;4.80;;;6.60;93.80;;;;;;5072455;28;20044;-68
2020/12/30 10:28:53;;;;;;;6.38;3.80;;;6.60;93.70;;;;;;5071767;28;20112;-69
2020/12/30 10:31:19;;;;;;;7.90;4.35;;;6.70;93.70;;;;;;5072745;28;20028;-66
2020/12/30 10:33:44;;;;;;;9.23;4.55;;;6.70;93.70;;;;;;5072390;28;20037;-68
2020/12/30 10:36:10;;;;;;;10.50;4.38;;;6.80;93.70;;;;;;5071091;28;20040;-66
2020/12/30 10:38:36;;;;;;;8.90;4.68;;;6.80;93.50;;;;;;5074227;28;20450;-73
2020/12/30 10:41:02;;;;;;;8.57;4.20;;;6.80;93.60;;;;;;5072707;28;20119;-72
2020/12/30 10:43:28;;;;;;;9.43;4.63;;;6.90;93.90;;;;;;5072490;28;20086;-70
2020/12/30 10:45:54;;;;;;;8.00;4.43;;;6.90;93.60;;;;;;5072648;28;20032;-69
2020/12/30 10:48:19;;;;;;;8.82;4.45;;;6.90;93.50;;;;;;5072556;28;20342;-73
2020/12/30 10:50:45;;;;;;;6.55;3.88;;;6.90;93.50;;;;;;5073134;28;20025;-72
2020/12/30 10:53:11;;;;;;;9.45;5.20;;;6.90;93.70;;;;;;5072319;28;20044;-73
2020/12/30 10:55:37;;;;;;;12.52;5.18;;;7.00;93.60;;;;;;5059048;28;20071;-73
2020/12/30 10:58:02;;;;;;;12.70;5.75;;;7.00;93.50;;;;;;5052798;28;20086;-72
2020/12/30 11:00:28;;;;;;;9.57;4.90;;;7.10;93.40;;;;;;5052129;28;20447;-73
2020/12/30 11:02:54;;;;;;;9.88;5.22;;;7.20;93.80;;;;;;5053926;28;20435;-71
2020/12/30 11:05:20;;;;;;;7.95;5.10;;;7.30;93.40;;;;;;5051081;28;20071;-72
2020/12/30 11:07:45;;;;;;;10.27;5.18;;;7.30;93.20;;;;;;5051740;28;20116;-73
2020/12/30 11:10:12;;;;;;;10.85;5.95;;;7.50;93.20;;;;;;5051083;28;20478;-74
2020/12/30 11:12:37;;;;;;;11.57;5.60;;;7.60;93.20;;;;;;5056306;28;20052;-73
2020/12/30 11:15:05;;;;;;;11.05;5.55;;;7.70;93.10;;;;;;5072700;28;20078;-71
2020/12/30 11:17:31;;;;;;;8.13;5.27;;;7.80;92.80;;;;;;5070803;28;20044;-72
2020/12/30 11:19:56;;;;;;;7.75;5.35;;;7.80;92.70;;;;;;5071697;28;20260;-72
2020/12/30 11:22:24;;;;;;;8.52;5.18;;;8.00;92.80;;;;;;5071729;28;20029;-72
2020/12/30 11:24:49;;;;;;;10.98;5.53;;;8.10;92.70;;;;;;5071917;28;20033;-72
2020/12/30 11:27:15;;;;;;;10.15;5.70;;;8.10;92.60;;;;;;5071579;28;20024;-71
2020/12/30 11:29:41;;;;;;;16.60;6.15;;;8.20;92.50;;;;;;5073518;28;20040;-71
2020/12/30 11:32:07;;;;;;;12.35;5.43;;;8.30;92.40;;;;;;5071840;28;20374;-72
2020/12/30 11:34:32;;;;;;;9.15;5.60;;;8.50;92.40;;;;;;5071590;28;20070;-72
2020/12/30 11:36:58;;;;;;;8.70;5.38;;;8.60;92.30;;;;;;5071175;28;20463;-72
2020/12/30 11:39:24;;;;;;;10.93;6.05;;;9.00;92.50;;;;;;5071237;28;20352;-74
2020/12/30 11:41:50;;;;;;;14.35;6.18;;;9.20;91.60;;;;;;5073004;28;20056;-72
2020/12/30 11:44:17;;;;;;;10.48;5.05;;;9.40;91.30;;;;;;5070666;28;20162;-72
2020/12/30 11:46:43;;;;;;;15.90;6.18;;;9.80;91.10;;;;;;5071583;28;20040;-72
2020/12/30 11:49:09;;;;;;;9.93;5.43;;;10.10;90.50;;;;;;5071632;28;20401;-72
2020/12/30 11:51:40;;;;;;;9.02;5.63;;;9.90;90.40;;;;;;5071259;28;20048;-72
2020/12/30 11:54:06;;;;;;;10.80;5.93;;;9.70;90.30;;;;;;5071420;28;20020;-70
2020/12/30 11:56:32;;;;;;;11.63;6.43;;;9.60;90.40;;;;;;5072972;28;20035;-71
2020/12/30 11:58:58;;;;;;;13.70;6.30;;;9.50;90.60;;;;;;5071627;28;20366;-71
2020/12/30 12:01:30;;;;;;;11.20;6.13;;;9.50;90.80;;;;;;5071267;28;20454;-71
2020/12/30 12:03:57;;;;;;;10.38;5.25;;;9.20;90.90;;;;;;5071363;28;20037;-71
2020/12/30 12:06:22;;;;;;;9.15;5.97;;;9.00;91.20;;;;;;5073535;28;20086;-72
2020/12/30 12:08:48;;;;;;;10.38;5.97;;;8.80;91.60;;;;;;5076926;28;20052;-71
2020/12/30 12:11:14;;;;;;;9.82;6.28;;;8.50;92.10;;;;;;5075342;28;20032;-72
2020/12/30 12:13:39;;;;;;;16.38;7.00;;;8.50;92.30;;;;;;5075609;28;20346;-72
2020/12/30 12:16:05;;;;;;;10.18;6.00;;;8.40;92.50;;;;;;5075081;28;20024;-72
2020/12/30 12:18:31;;;;;;;11.77;6.65;;;8.40;92.60;;;;;;5074828;28;20039;-72
2020/12/30 12:20:57;;;;;;;12.13;6.45;;;8.30;92.60;;;;;;5076870;28;20078;-71
2020/12/30 12:23:26;;;;;;;18.13;6.40;;;8.20;92.60;;;;;;5074152;28;20390;-71
2020/12/30 12:25:51;;;;;;;17.85;5.88;;;8.10;92.90;;;;;;5075123;28;20036;-73
2020/12/30 12:28:56;;;;;;;9.90;6.15;;;8.10;93.10;;;;;;5075146;28;20119;-73
2020/12/30 12:31:21;;;;;;;10.73;6.35;;;8.20;93.00;;;;;;5075235;28;20028;-72
2020/12/30 12:33:47;;;;;;;12.35;6.75;;;8.20;93.00;;;;;;5074917;28;20373;-71
2020/12/30 12:36:14;;;;;;;11.32;6.25;;;8.30;93.00;;;;;;5074667;28;20099;-73
2020/12/30 12:38:41;;;;;;;9.90;6.25;;;8.20;93.00;;;;;;5076345;28;20432;-72
2020/12/30 12:41:06;;;;;;;15.27;6.75;;;8.20;93.10;;;;;;5074048;28;20519;-73
2020/12/30 12:43:32;;;;;;;15.25;6.47;;;8.20;93.00;;;;;;5074761;28;20033;-72
2020/12/30 12:45:58;;;;;;;10.77;6.15;;;8.00;93.20;;;;;;5074688;28;20063;-72
2020/12/30 12:48:24;;;;;;;12.88;6.95;;;8.10;93.40;;;;;;5074267;28;20071;-71
2020/12/30 12:50:49;;;;;;;10.10;6.60;;;8.00;93.30;;;;;;5075149;28;20357;-71
2020/12/30 12:53:17;;;;;;;15.10;7.82;;;7.80;93.60;;;;;;5074274;28;20052;-71
2020/12/30 12:55:42;;;;;;;13.98;7.05;;;7.90;93.90;;;;;;5074404;28;20067;-72